createdAt,value
2022-08-18T00:00:01.239Z,64.73
2022-08-18T00:02:31.098Z,64.89
2022-08-18T00:05:01.184Z,65.26
2022-08-18T00:07:32.783Z,65.44
2022-08-18T00:10:01.415Z,65.73
2022-08-18T00:12:32.596Z,65.94
2022-08-18T00:15:03.648Z,66.27
2022-08-18T00:17:33.877Z,66.51
2022-08-18T00:20:02.163Z,66.95
2022-08-18T00:22:30.277Z,67.35
2022-08-18T00:24:58.786Z,67.50
2022-08-18T00:27:29.014Z,68.06
2022-08-18T00:29:58.831Z,68.49
2022-08-18T00:32:28.847Z,68.89
2022-08-18T00:34:58.189Z,69.08
2022-08-18T00:37:26.184Z,69.05
2022-08-18T00:39:54.827Z,69.03
2022-08-18T00:42:28.840Z,68.98
2022-08-18T00:45:07.082Z,69.28
2022-08-18T00:47:42.304Z,69.27
2022-08-18T00:50:16.772Z,69.47
2022-08-18T00:52:52.178Z,69.18
2022-08-18T00:55:21.310Z,69.60
2022-08-18T00:57:52.481Z,69.75
2022-08-18T01:00:21.225Z,69.95
2022-08-18T01:02:52.712Z,69.91
2022-08-18T01:05:25.243Z,69.45
2022-08-18T01:07:53.407Z,69.77
2022-08-18T01:10:23.894Z,69.71
2022-08-18T01:12:54.156Z,69.92
2022-08-18T01:15:28.718Z,70.12
2022-08-18T01:18:16.227Z,70.36
2022-08-18T01:21:16.540Z,69.95
2022-08-18T01:23:46.773Z,70.01
2022-08-18T01:26:14.851Z,69.94
2022-08-18T01:28:44.616Z,69.88
2022-08-18T01:31:13.788Z,70.14
2022-08-18T01:33:44.093Z,70.08
2022-08-18T01:36:14.428Z,70.25
2022-08-18T01:38:42.430Z,69.65
2022-08-18T01:41:26.908Z,69.43
2022-08-18T01:43:58.475Z,69.04
2022-08-18T01:46:26.955Z,68.85
2022-08-18T01:48:55.233Z,68.57
2022-08-18T01:51:39.495Z,68.45
2022-08-18T01:54:11.187Z,68.60
2022-08-18T01:56:42.302Z,68.58
2022-08-18T01:59:14.992Z,68.69
2022-08-18T02:01:53.105Z,68.53
2022-08-18T02:04:35.635Z,68.82
2022-08-18T02:07:09.604Z,69.01
2022-08-18T02:09:39.335Z,69.17
2022-08-18T02:12:09.235Z,69.43
2022-08-18T02:14:38.181Z,69.50
2022-08-18T02:17:08.704Z,69.86
2022-08-18T02:19:38.352Z,70.02
2022-08-18T02:22:07.865Z,70.06
2022-08-18T02:24:36.041Z,70.33
2022-08-18T02:27:04.194Z,70.44
2022-08-18T02:29:33.634Z,70.68
2022-08-18T02:32:01.729Z,70.64
2022-08-18T02:34:29.836Z,70.91
2022-08-18T02:36:57.823Z,71.36
2022-08-18T02:39:25.782Z,71.74
2022-08-18T02:41:53.748Z,71.73
2022-08-18T02:44:21.776Z,71.44
2022-08-18T02:46:54.821Z,71.49
2022-08-18T02:49:22.827Z,71.42
2022-08-18T02:51:51.153Z,71.37
2022-08-18T02:54:20.427Z,71.35
2022-08-18T02:56:48.397Z,71.18
2022-08-18T02:59:17.900Z,71.05
2022-08-18T03:01:48.591Z,71.06
2022-08-18T03:04:26.662Z,71.16
2022-08-18T03:06:57.394Z,71.37
2022-08-18T03:09:25.395Z,71.43
2022-08-18T03:11:54.585Z,71.49
2022-08-18T03:14:22.995Z,71.76
2022-08-18T03:16:54.254Z,71.75
2022-08-18T03:19:39.200Z,71.64
2022-08-18T03:22:27.697Z,71.84
2022-08-18T03:24:57.639Z,71.87
2022-08-18T03:27:25.747Z,71.94
2022-08-18T03:29:53.868Z,71.99
2022-08-18T03:32:22.644Z,72.13
2022-08-18T03:34:52.072Z,72.13
2022-08-18T03:37:20.032Z,72.13
2022-08-18T03:39:51.662Z,72.30
2022-08-18T03:42:19.689Z,72.59
2022-08-18T03:44:47.645Z,72.63
2022-08-18T03:47:18.083Z,72.61
2022-08-18T03:49:46.076Z,72.82
2022-08-18T03:52:15.564Z,72.82
2022-08-18T03:54:43.803Z,72.86
2022-08-18T03:57:12.876Z,72.89
2022-08-18T03:59:43.552Z,73.03
2022-08-18T04:02:11.951Z,72.93
2022-08-18T04:04:43.005Z,72.89
2022-08-18T04:07:14.322Z,72.99
2022-08-18T04:09:44.040Z,73.01
2022-08-18T04:12:16.378Z,73.07
2022-08-18T04:14:48.019Z,73.02
2022-08-18T04:17:16.748Z,73.01
2022-08-18T04:19:44.985Z,72.81
2022-08-18T04:22:18.632Z,72.53
2022-08-18T04:24:48.100Z,72.22
2022-08-18T04:27:18.474Z,71.80
2022-08-18T04:29:46.476Z,71.67
2022-08-18T04:32:15.176Z,71.61
2022-08-18T04:34:43.203Z,71.64
2022-08-18T04:37:11.178Z,71.50
2022-08-18T04:39:39.505Z,71.32
2022-08-18T04:42:09.258Z,71.18
2022-08-18T04:44:38.835Z,71.13
2022-08-18T04:47:07.839Z,70.99
2022-08-18T04:49:36.570Z,70.76
2022-08-18T04:52:39.135Z,70.68
2022-08-18T04:55:09.908Z,70.35
2022-08-18T04:57:39.552Z,70.09
2022-08-18T05:00:08.968Z,70.05
2022-08-18T05:02:37.001Z,70.02
2022-08-18T05:05:05.480Z,69.90
2022-08-18T05:07:33.973Z,69.76
2022-08-18T05:10:02.043Z,69.65
2022-08-18T05:12:30.065Z,69.56
2022-08-18T05:14:59.414Z,69.56
2022-08-18T05:17:29.933Z,69.22
2022-08-18T05:19:59.986Z,69.64
2022-08-18T05:22:30.994Z,70.03
2022-08-18T05:25:00.145Z,70.42
2022-08-18T05:27:32.865Z,70.09
2022-08-18T05:30:02.398Z,69.83
2022-08-18T05:32:46.723Z,68.99
2022-08-18T05:35:21.622Z,68.56
2022-08-18T05:38:02.043Z,68.69
2022-08-18T05:40:31.854Z,68.37
2022-08-18T05:43:00.359Z,67.90
2022-08-18T05:45:29.956Z,67.69
2022-08-18T05:47:59.949Z,67.64
2022-08-18T05:50:29.890Z,67.71
2022-08-18T05:52:59.575Z,67.24
2022-08-18T05:55:48.517Z,66.68
2022-08-18T05:58:19.283Z,66.14
2022-08-18T06:00:57.508Z,65.50
2022-08-18T06:03:45.236Z,64.90
2022-08-18T06:06:19.456Z,64.90
2022-08-18T06:08:53.791Z,64.69
2022-08-18T06:11:22.735Z,64.84
2022-08-18T06:13:51.692Z,64.85
2022-08-18T06:16:38.999Z,65.20
2022-08-18T06:19:19.678Z,65.44
2022-08-18T06:21:54.321Z,65.80
2022-08-18T06:24:27.544Z,66.18
2022-08-18T06:26:58.997Z,66.24
2022-08-18T06:29:35.829Z,66.25
2022-08-18T06:32:14.366Z,66.24
2022-08-18T06:34:54.559Z,66.28
2022-08-18T06:37:32.072Z,66.06
2022-08-18T06:40:00.152Z,65.82
2022-08-18T06:42:30.786Z,65.48
2022-08-18T06:45:02.202Z,65.42
2022-08-18T06:47:37.313Z,65.07
2022-08-18T06:50:08.268Z,65.01
2022-08-18T06:52:38.434Z,64.80
2022-08-18T06:55:09.057Z,64.71
2022-08-18T06:57:39.817Z,64.85
2022-08-18T07:00:12.895Z,64.85
2022-08-18T07:02:48.338Z,64.82
2022-08-18T07:05:20.483Z,64.40
2022-08-18T07:07:57.949Z,64.12
2022-08-18T07:10:32.612Z,64.31
2022-08-18T07:13:18.784Z,64.04
2022-08-18T07:15:48.497Z,63.39
2022-08-18T07:18:28.003Z,62.85
2022-08-18T07:20:58.701Z,62.63
2022-08-18T07:23:29.973Z,61.86
2022-08-18T07:26:05.401Z,61.57
2022-08-18T07:28:37.662Z,60.96
2022-08-18T07:31:24.823Z,61.09
2022-08-18T07:34:02.108Z,61.20
2022-08-18T07:36:33.799Z,60.74
2022-08-18T07:39:05.045Z,60.36
2022-08-18T07:41:36.429Z,60.34
2022-08-18T07:44:14.004Z,59.88
2022-08-18T07:46:45.301Z,59.78
2022-08-18T07:49:22.173Z,59.29
2022-08-18T07:51:54.591Z,59.29
2022-08-18T07:54:48.899Z,58.82
2022-08-18T07:57:24.688Z,58.29
2022-08-18T07:59:57.904Z,58.06
2022-08-18T08:02:37.593Z,57.89
2022-08-18T08:05:16.074Z,57.58
2022-08-18T08:07:47.343Z,57.21
2022-08-18T08:10:26.759Z,57.41
2022-08-18T08:13:09.197Z,57.32
2022-08-18T08:15:50.890Z,57.08
2022-08-18T08:18:23.398Z,57.32
2022-08-18T08:20:55.778Z,56.98
2022-08-18T08:23:30.387Z,56.98
2022-08-18T08:26:10.092Z,57.25
2022-08-18T08:28:43.999Z,57.02
2022-08-18T08:34:08.637Z,56.88
2022-08-18T08:36:41.192Z,56.56
2022-08-18T08:39:14.185Z,56.28
2022-08-18T08:41:45.637Z,56.06
2022-08-18T08:44:17.190Z,55.71
2022-08-18T08:46:48.585Z,54.92
2022-08-18T08:49:26.975Z,54.85
2022-08-18T08:51:59.531Z,54.38
2022-08-18T08:54:32.048Z,53.60
2022-08-18T08:57:01.308Z,52.14
2022-08-18T08:59:29.319Z,50.55
2022-08-18T09:02:05.755Z,49.02
2022-08-18T09:04:54.781Z,47.63
2022-08-18T09:07:43.395Z,46.24
2022-08-18T09:10:26.700Z,44.82
2022-08-18T09:13:05.448Z,44.31
2022-08-18T09:15:43.312Z,43.11
2022-08-18T09:18:34.173Z,42.95
2022-08-18T09:21:11.307Z,42.28
2022-08-18T09:23:44.685Z,42.62
2022-08-18T09:26:40.531Z,41.05
2022-08-18T09:29:21.808Z,41.15
2022-08-18T09:31:51.108Z,40.94
2022-08-18T09:34:31.802Z,40.99
2022-08-18T09:37:05.617Z,41.35
2022-08-18T09:39:59.086Z,41.48
2022-08-18T09:42:48.326Z,40.63
2022-08-18T09:45:54.577Z,40.72
2022-08-18T09:48:29.237Z,39.81
2022-08-18T09:51:19.159Z,39.14
2022-08-18T09:54:09.621Z,38.41
2022-08-18T09:56:59.649Z,38.80
2022-08-18T09:59:52.662Z,38.91
2022-08-18T10:02:55.625Z,38.29
2022-08-18T10:05:28.316Z,38.65
2022-08-18T10:08:28.906Z,38.32
2022-08-18T10:14:00.149Z,37.02
2022-08-18T10:16:42.011Z,37.05
2022-08-18T10:19:28.217Z,36.83
2022-08-18T10:22:06.360Z,35.86
2022-08-18T10:24:37.974Z,36.94
2022-08-18T10:27:08.939Z,37.47
2022-08-18T10:29:50.920Z,37.09
2022-08-18T10:32:38.357Z,36.75
2022-08-18T10:35:07.785Z,36.56
2022-08-18T10:37:39.722Z,35.86
2022-08-18T10:40:21.146Z,36.12
2022-08-18T10:42:53.484Z,35.57
2022-08-18T10:45:27.658Z,36.57
2022-08-18T10:48:16.769Z,36.75
2022-08-18T10:50:51.159Z,36.74
2022-08-18T10:53:39.293Z,36.56
2022-08-18T10:56:26.798Z,36.08
2022-08-18T10:59:05.348Z,36.13
2022-08-18T11:01:46.013Z,36.89
2022-08-18T11:04:34.738Z,37.12
2022-08-18T11:07:11.135Z,37.26
2022-08-18T11:09:41.959Z,37.35
2022-08-18T11:12:12.943Z,37.27
2022-08-18T11:14:58.429Z,37.42
2022-08-18T11:17:40.460Z,36.51
2022-08-18T11:20:13.393Z,35.79
2022-08-18T11:22:51.262Z,34.79
2022-08-18T11:25:25.027Z,34.87
2022-08-18T11:27:56.397Z,34.87
2022-08-18T11:30:30.639Z,34.13
2022-08-18T11:33:02.910Z,34.59
2022-08-18T11:35:33.480Z,35.09
2022-08-18T11:38:03.683Z,35.09
2022-08-18T11:43:25.751Z,36.12
2022-08-18T11:46:00.147Z,36.49
2022-08-18T11:48:51.893Z,36.17
2022-08-18T11:51:25.135Z,35.94
2022-08-18T11:53:59.423Z,35.79
2022-08-18T11:56:31.270Z,36.21
2022-08-18T11:59:01.715Z,36.35
2022-08-18T12:01:40.834Z,36.19
2022-08-18T12:04:23.839Z,36.14
2022-08-18T12:06:55.097Z,36.24
2022-08-18T12:10:07.859Z,35.77
2022-08-18T12:12:18.288Z,36.41
2022-08-18T12:15:02.964Z,35.95
2022-08-18T12:17:41.016Z,36.16
2022-08-18T12:20:11.814Z,36.03
2022-08-18T12:22:43.915Z,35.84
2022-08-18T12:25:15.553Z,35.86
2022-08-18T12:27:52.616Z,35.45
2022-08-18T12:30:20.748Z,36.20
2022-08-18T12:32:50.712Z,36.42
2022-08-18T12:35:25.489Z,36.38
2022-08-18T12:37:59.631Z,36.26
2022-08-18T12:40:31.568Z,35.91
2022-08-18T12:42:59.598Z,36.55
2022-08-18T12:45:30.879Z,36.90
2022-08-18T12:48:04.140Z,36.92
2022-08-18T12:50:43.179Z,37.53
2022-08-18T12:53:30.834Z,37.56
2022-08-18T12:56:19.756Z,37.57
2022-08-18T12:58:47.885Z,37.86
2022-08-18T13:01:17.478Z,38.24
2022-08-18T13:06:40.694Z,38.37
2022-08-18T13:09:33.990Z,38.22
2022-08-18T13:11:57.390Z,38.31
2022-08-18T13:14:28.455Z,38.45
2022-08-18T13:16:56.553Z,38.54
2022-08-18T13:19:25.847Z,38.71
2022-08-18T13:22:02.818Z,38.34
2022-08-18T13:24:31.594Z,38.57
2022-08-18T13:27:00.596Z,38.61
2022-08-18T13:29:28.657Z,38.35
2022-08-18T13:31:59.520Z,38.61
2022-08-18T13:34:29.988Z,38.41
2022-08-18T13:36:58.542Z,38.37
2022-08-18T13:39:31.272Z,38.64
2022-08-18T13:42:28.547Z,38.60
2022-08-18T13:44:53.458Z,38.83
2022-08-18T13:47:22.185Z,38.91
2022-08-18T13:49:58.055Z,38.88
2022-08-18T13:52:34.394Z,38.88
2022-08-18T13:55:08.543Z,39.40
2022-08-18T13:57:41.811Z,39.83
2022-08-18T14:00:18.067Z,39.54
2022-08-18T14:02:51.024Z,39.72
2022-08-18T14:05:20.587Z,38.78
2022-08-18T14:07:48.815Z,38.55
2022-08-18T14:10:18.885Z,38.53
2022-08-18T14:12:47.419Z,38.09
2022-08-18T14:15:17.777Z,37.55
2022-08-18T14:17:46.919Z,37.85
2022-08-18T14:20:34.703Z,38.56
2022-08-18T14:23:24.591Z,38.32
2022-08-18T14:26:19.011Z,38.83
2022-08-18T14:28:47.698Z,38.65
2022-08-18T14:31:18.248Z,39.04
2022-08-18T14:33:50.421Z,39.22
2022-08-18T14:36:29.908Z,40.50
2022-08-18T14:38:58.952Z,40.43
2022-08-18T14:41:29.337Z,40.48
2022-08-18T14:44:12.967Z,40.73
2022-08-18T14:46:54.046Z,40.68
2022-08-18T14:49:29.463Z,39.84
2022-08-18T14:51:58.950Z,39.39
2022-08-18T14:54:28.596Z,39.21
2022-08-18T14:57:01.687Z,38.84
2022-08-18T14:59:30.880Z,38.61
2022-08-18T15:02:07.618Z,38.39
2022-08-18T15:04:55.804Z,39.53
2022-08-18T15:07:24.983Z,40.13
2022-08-18T15:10:15.289Z,40.73
2022-08-18T15:12:43.819Z,42.75
2022-08-18T15:15:17.765Z,43.50
2022-08-18T15:17:49.561Z,44.08
2022-08-18T15:20:23.815Z,44.40
2022-08-18T15:23:18.366Z,44.70
2022-08-18T15:25:52.817Z,45.22
2022-08-18T15:28:26.276Z,45.58
2022-08-18T15:33:42.276Z,46.09
2022-08-18T15:36:10.698Z,46.31
2022-08-18T15:38:44.506Z,46.69
2022-08-18T15:41:29.030Z,47.04
2022-08-18T15:44:00.866Z,47.22
2022-08-18T15:46:28.907Z,47.18
2022-08-18T15:48:57.424Z,47.15
2022-08-18T15:51:26.604Z,47.36
2022-08-18T15:54:04.206Z,47.30
2022-08-18T15:56:32.634Z,47.43
2022-08-18T15:59:07.691Z,47.36
2022-08-18T16:01:40.532Z,47.20
2022-08-18T16:04:10.034Z,47.34
2022-08-18T16:06:45.121Z,47.44
2022-08-18T16:09:13.674Z,47.24
2022-08-18T16:11:42.421Z,47.05
2022-08-18T16:14:11.826Z,47.03
2022-08-18T16:16:39.828Z,47.08
2022-08-18T16:19:08.171Z,46.97
2022-08-18T16:21:40.145Z,46.85
2022-08-18T16:24:09.199Z,46.64
2022-08-18T16:26:37.171Z,46.64
2022-08-18T16:29:06.309Z,46.63
2022-08-18T16:31:35.616Z,47.21
2022-08-18T16:34:05.801Z,48.50
2022-08-18T16:36:33.748Z,50.76
2022-08-18T16:39:01.726Z,51.55
2022-08-18T16:41:31.854Z,51.54
2022-08-18T16:43:59.813Z,52.66
2022-08-18T16:46:29.212Z,53.84
2022-08-18T16:48:59.287Z,53.56
2022-08-18T16:51:28.832Z,53.82
2022-08-18T16:53:57.038Z,53.08
2022-08-18T16:56:27.476Z,52.71
2022-08-18T16:59:13.261Z,52.57
2022-08-18T17:01:59.574Z,52.56
2022-08-18T17:04:33.482Z,52.65
2022-08-18T17:07:02.694Z,53.01
2022-08-18T17:09:30.666Z,52.41
2022-08-18T17:11:58.674Z,52.51
2022-08-18T17:14:29.879Z,53.07
2022-08-18T17:16:58.898Z,53.28
2022-08-18T17:19:31.685Z,53.84
2022-08-18T17:22:00.784Z,52.93
2022-08-18T17:24:32.432Z,52.30
2022-08-18T17:27:11.900Z,52.26
2022-08-18T17:29:45.525Z,51.43
2022-08-18T17:32:20.217Z,51.64
2022-08-18T17:34:54.957Z,51.91
2022-08-18T17:37:24.051Z,51.72
2022-08-18T17:39:54.932Z,51.49
2022-08-18T17:42:29.088Z,51.88
2022-08-18T17:44:59.346Z,52.65
2022-08-18T17:47:33.211Z,52.81
2022-08-18T17:50:27.067Z,53.56
2022-08-18T17:53:01.670Z,54.99
2022-08-18T17:55:32.465Z,55.85
2022-08-18T17:58:03.655Z,55.94
2022-08-18T18:00:32.541Z,56.06
2022-08-18T18:03:01.275Z,56.12
2022-08-18T18:05:34.240Z,56.31
2022-08-18T18:08:02.595Z,56.59
2022-08-18T18:10:43.054Z,56.86
2022-08-18T18:13:24.709Z,57.58
2022-08-18T18:15:54.613Z,58.14
2022-08-18T18:18:27.021Z,58.91
2022-08-18T18:21:06.320Z,59.88
2022-08-18T18:23:38.227Z,60.44
2022-08-18T18:26:28.215Z,61.01
2022-08-18T18:29:16.355Z,61.60
2022-08-18T18:31:46.724Z,62.15
2022-08-18T18:34:23.335Z,62.70
2022-08-18T18:36:59.414Z,63.26
2022-08-18T18:39:33.257Z,63.60
2022-08-18T18:42:17.959Z,63.68
2022-08-18T18:44:54.892Z,64.16
2022-08-18T18:47:37.567Z,64.34
2022-08-18T18:50:08.585Z,64.58
2022-08-18T18:52:42.546Z,64.75
2022-08-18T18:55:15.653Z,65.10
2022-08-18T18:57:50.690Z,65.46
2022-08-18T19:00:21.058Z,65.74
2022-08-18T19:02:57.531Z,66.32
2022-08-18T19:05:30.932Z,66.87
2022-08-18T19:08:14.555Z,68.02
2022-08-18T19:10:46.161Z,69.12
2022-08-18T19:13:24.935Z,71.00
2022-08-18T19:16:06.519Z,71.17
2022-08-18T19:18:36.232Z,71.64
2022-08-18T19:22:02.007Z,71.20
2022-08-18T19:24:04.254Z,71.45
2022-08-18T19:26:38.899Z,71.45
2022-08-18T19:29:13.580Z,71.33
2022-08-18T19:31:46.179Z,71.46
2022-08-18T19:34:18.313Z,71.20
2022-08-18T19:36:48.727Z,71.13
2022-08-18T19:39:34.189Z,71.23
2022-08-18T19:42:06.482Z,71.05
2022-08-18T19:44:38.025Z,71.04
2022-08-18T19:47:12.344Z,71.12
2022-08-18T19:49:48.453Z,71.00
2022-08-18T19:52:46.657Z,71.06
2022-08-18T19:55:28.092Z,71.07
2022-08-18T19:58:19.708Z,70.91
2022-08-18T20:00:53.153Z,70.93
2022-08-18T20:03:34.576Z,70.86
2022-08-18T20:06:33.610Z,71.00
2022-08-18T20:09:39.686Z,71.04
2022-08-18T20:12:20.678Z,71.21
2022-08-18T20:15:00.945Z,72.08
2022-08-18T20:17:28.989Z,73.67
2022-08-18T20:20:13.416Z,75.19
2022-08-18T20:22:43.614Z,76.56
2022-08-18T20:25:32.577Z,77.22
2022-08-18T20:28:23.518Z,77.77
2022-08-18T20:31:01.745Z,77.58
2022-08-18T20:33:32.614Z,78.21
2022-08-18T20:36:15.262Z,78.99
2022-08-18T20:38:45.591Z,80.41
2022-08-18T20:41:39.150Z,81.44
2022-08-18T20:44:28.832Z,82.10
2022-08-18T20:47:04.419Z,82.74
2022-08-18T20:49:42.462Z,83.18
2022-08-18T20:52:30.110Z,83.24
2022-08-18T20:55:11.555Z,83.27
2022-08-18T20:57:40.306Z,83.08
2022-08-18T21:00:15.565Z,82.60
2022-08-18T21:02:48.563Z,82.85
2022-08-18T21:05:27.738Z,82.75
2022-08-18T21:08:04.637Z,82.65
2022-08-18T21:10:33.908Z,82.28
2022-08-18T21:13:05.299Z,82.32
2022-08-18T21:15:37.313Z,82.45
2022-08-18T21:18:07.340Z,82.63
2022-08-18T21:20:35.758Z,82.92
2022-08-18T21:23:06.701Z,83.01
2022-08-18T21:25:34.995Z,83.12
2022-08-18T21:28:03.972Z,83.19
2022-08-18T21:30:32.652Z,83.48
2022-08-18T21:33:02.084Z,83.08
2022-08-18T21:35:33.409Z,82.60
2022-08-18T21:38:03.928Z,82.72
2022-08-18T21:40:39.239Z,82.83
2022-08-18T21:43:08.368Z,82.92
2022-08-18T21:45:47.652Z,82.59
2022-08-18T21:48:17.191Z,82.79
2022-08-18T21:50:51.245Z,82.45
2022-08-18T21:53:21.848Z,82.48
2022-08-18T21:55:51.457Z,82.78
2022-08-18T21:58:21.416Z,83.12
2022-08-18T22:01:14.069Z,83.17
2022-08-18T22:03:55.750Z,82.87
2022-08-18T22:06:30.721Z,82.51
2022-08-18T22:09:21.168Z,82.38
2022-08-18T22:12:09.185Z,82.50
2022-08-18T22:14:54.545Z,82.27
2022-08-18T22:17:32.561Z,82.15
2022-08-18T22:20:38.181Z,81.93
2022-08-18T22:23:41.748Z,81.54
2022-08-18T22:26:12.358Z,81.44
2022-08-18T22:28:49.498Z,81.47
2022-08-18T22:31:21.067Z,81.36
2022-08-18T22:33:49.673Z,81.40
2022-08-18T22:36:21.648Z,81.60
2022-08-18T22:38:52.342Z,81.92
2022-08-18T22:41:20.595Z,82.19
2022-08-18T22:43:50.428Z,82.36
2022-08-18T22:46:24.775Z,82.40
2022-08-18T22:48:53.677Z,82.58
2022-08-18T22:51:23.934Z,82.71
2022-08-18T22:53:53.601Z,82.93
2022-08-18T22:56:26.446Z,82.97
2022-08-18T22:59:13.792Z,82.98
2022-08-18T23:01:46.022Z,83.06
2022-08-18T23:04:15.953Z,83.07
2022-08-18T23:06:51.073Z,83.35
2022-08-18T23:09:22.599Z,83.43
2022-08-18T23:11:51.881Z,83.50
2022-08-18T23:14:20.146Z,83.52
2022-08-18T23:16:48.389Z,83.67
2022-08-18T23:19:17.422Z,83.82
2022-08-18T23:21:48.345Z,83.91
2022-08-18T23:24:17.518Z,84.04
2022-08-18T23:26:47.031Z,84.19
2022-08-18T23:29:15.340Z,84.48
2022-08-18T23:31:44.872Z,84.78
2022-08-18T23:34:15.271Z,85.01
2022-08-18T23:36:45.763Z,85.16
2022-08-18T23:39:14.438Z,85.17
2022-08-18T23:41:42.564Z,85.25
2022-08-18T23:44:13.427Z,85.41
2022-08-18T23:46:43.784Z,85.78
2022-08-18T23:49:15.005Z,85.99
2022-08-18T23:51:45.096Z,85.94
2022-08-18T23:54:15.619Z,86.07
2022-08-18T23:56:43.607Z,86.20
2022-08-18T23:59:13.549Z,86.16
